sensor_id;sensor_type;location;lat;lon;timestamp;P1;durP1;ratioP1;P2;durP2;ratioP2
28627;SDS011;15815;46.760;19.604;2023-07-31T00:01:02;1.48;;;1.30;;
28627;SDS011;15815;46.760;19.604;2023-07-31T00:03:28;1.30;;;1.00;;
28627;SDS011;15815;46.760;19.604;2023-07-31T00:05:53;1.48;;;1.38;;
28627;SDS011;15815;46.760;19.604;2023-07-31T00:08:20;1.77;;;1.17;;
28627;SDS011;15815;46.760;19.604;2023-07-31T00:10:45;1.75;;;1.20;;
28627;SDS011;15815;46.760;19.604;2023-07-31T00:13:11;1.65;;;1.30;;
28627;SDS011;15815;46.760;19.604;2023-07-31T00:15:37;1.27;;;1.15;;
28627;SDS011;15815;46.760;19.604;2023-07-31T00:18:02;1.13;;;1.02;;
28627;SDS011;15815;46.760;19.604;2023-07-31T00:20:28;1.90;;;1.52;;
28627;SDS011;15815;46.760;19.604;2023-07-31T00:22:53;1.63;;;1.38;;
28627;SDS011;15815;46.760;19.604;2023-07-31T00:25:19;1.67;;;1.40;;
28627;SDS011;15815;46.760;19.604;2023-07-31T00:27:44;1.77;;;1.45;;
28627;SDS011;15815;46.760;19.604;2023-07-31T00:30:10;2.15;;;1.50;;
28627;SDS011;15815;46.760;19.604;2023-07-31T00:32:36;1.60;;;1.30;;
28627;SDS011;15815;46.760;19.604;2023-07-31T00:35:01;1.45;;;1.35;;
28627;SDS011;15815;46.760;19.604;2023-07-31T00:37:27;1.52;;;1.10;;
28627;SDS011;15815;46.760;19.604;2023-07-31T00:39:52;1.98;;;1.33;;
28627;SDS011;15815;46.760;19.604;2023-07-31T00:42:18;1.70;;;1.40;;
28627;SDS011;15815;46.760;19.604;2023-07-31T00:44:43;1.35;;;1.23;;
28627;SDS011;15815;46.760;19.604;2023-07-31T00:47:09;1.40;;;1.30;;
28627;SDS011;15815;46.760;19.604;2023-07-31T00:49:34;1.40;;;1.17;;
28627;SDS011;15815;46.760;19.604;2023-07-31T00:52:02;1.40;;;1.30;;
28627;SDS011;15815;46.760;19.604;2023-07-31T00:54:28;2.38;;;1.60;;
28627;SDS011;15815;46.760;19.604;2023-07-31T00:56:53;1.85;;;1.42;;
28627;SDS011;15815;46.760;19.604;2023-07-31T00:59:21;2.50;;;1.77;;
28627;SDS011;15815;46.760;19.604;2023-07-31T01:01:46;2.08;;;1.42;;
28627;SDS011;15815;46.760;19.604;2023-07-31T01:04:12;2.88;;;1.80;;
28627;SDS011;15815;46.760;19.604;2023-07-31T01:09:23;2.40;;;2.00;;
28627;SDS011;15815;46.760;19.604;2023-07-31T01:12:00;3.05;;;2.00;;
28627;SDS011;15815;46.760;19.604;2023-07-31T01:14:29;2.53;;;1.45;;
28627;SDS011;15815;46.760;19.604;2023-07-31T01:16:56;2.38;;;1.92;;
28627;SDS011;15815;46.760;19.604;2023-07-31T01:19:22;2.60;;;1.73;;
28627;SDS011;15815;46.760;19.604;2023-07-31T01:24:41;2.28;;;1.75;;
28627;SDS011;15815;46.760;19.604;2023-07-31T01:27:13;3.97;;;1.83;;
28627;SDS011;15815;46.760;19.604;2023-07-31T01:30:30;2.80;;;2.40;;
28627;SDS011;15815;46.760;19.604;2023-07-31T01:32:43;2.95;;;2.00;;
28627;SDS011;15815;46.760;19.604;2023-07-31T01:35:14;3.65;;;2.00;;
28627;SDS011;15815;46.760;19.604;2023-07-31T01:37:40;2.42;;;2.00;;
28627;SDS011;15815;46.760;19.604;2023-07-31T01:40:06;2.25;;;2.00;;
28627;SDS011;15815;46.760;19.604;2023-07-31T01:42:31;3.58;;;2.40;;
28627;SDS011;15815;46.760;19.604;2023-07-31T01:44:57;2.85;;;2.00;;
28627;SDS011;15815;46.760;19.604;2023-07-31T01:47:22;2.45;;;1.92;;
28627;SDS011;15815;46.760;19.604;2023-07-31T01:49:48;2.40;;;1.95;;
28627;SDS011;15815;46.760;19.604;2023-07-31T01:52:13;2.35;;;2.15;;
28627;SDS011;15815;46.760;19.604;2023-07-31T01:54:39;2.35;;;2.10;;
28627;SDS011;15815;46.760;19.604;2023-07-31T01:57:04;2.60;;;2.35;;
28627;SDS011;15815;46.760;19.604;2023-07-31T01:59:30;3.55;;;1.98;;
28627;SDS011;15815;46.760;19.604;2023-07-31T02:01:56;3.03;;;2.08;;
28627;SDS011;15815;46.760;19.604;2023-07-31T02:04:21;3.08;;;2.17;;
28627;SDS011;15815;46.760;19.604;2023-07-31T02:06:47;3.08;;;2.40;;
28627;SDS011;15815;46.760;19.604;2023-07-31T02:09:15;2.40;;;1.98;;
28627;SDS011;15815;46.760;19.604;2023-07-31T02:11:41;3.25;;;2.40;;
28627;SDS011;15815;46.760;19.604;2023-07-31T02:14:07;2.75;;;2.38;;
28627;SDS011;15815;46.760;19.604;2023-07-31T02:16:36;5.60;;;2.55;;
28627;SDS011;15815;46.760;19.604;2023-07-31T02:19:01;3.28;;;2.13;;
28627;SDS011;15815;46.760;19.604;2023-07-31T02:21:27;2.55;;;2.20;;
28627;SDS011;15815;46.760;19.604;2023-07-31T02:23:52;3.63;;;2.40;;
28627;SDS011;15815;46.760;19.604;2023-07-31T02:26:18;2.80;;;2.28;;
28627;SDS011;15815;46.760;19.604;2023-07-31T02:28:43;2.30;;;2.10;;
28627;SDS011;15815;46.760;19.604;2023-07-31T02:31:09;3.33;;;2.53;;
28627;SDS011;15815;46.760;19.604;2023-07-31T02:33:34;3.70;;;2.45;;
28627;SDS011;15815;46.760;19.604;2023-07-31T02:36:00;3.80;;;2.83;;
28627;SDS011;15815;46.760;19.604;2023-07-31T02:38:25;2.65;;;2.35;;
28627;SDS011;15815;46.760;19.604;2023-07-31T02:40:51;2.25;;;2.05;;
28627;SDS011;15815;46.760;19.604;2023-07-31T02:43:16;3.47;;;2.40;;
28627;SDS011;15815;46.760;19.604;2023-07-31T02:45:42;2.80;;;2.33;;
28627;SDS011;15815;46.760;19.604;2023-07-31T02:48:07;3.40;;;2.53;;
28627;SDS011;15815;46.760;19.604;2023-07-31T02:50:34;3.42;;;2.58;;
28627;SDS011;15815;46.760;19.604;2023-07-31T02:53:00;4.38;;;2.80;;
28627;SDS011;15815;46.760;19.604;2023-07-31T02:55:26;3.45;;;2.30;;
28627;SDS011;15815;46.760;19.604;2023-07-31T02:57:51;4.47;;;2.75;;
28627;SDS011;15815;46.760;19.604;2023-07-31T03:00:17;4.20;;;2.42;;
28627;SDS011;15815;46.760;19.604;2023-07-31T03:02:42;3.58;;;2.83;;
28627;SDS011;15815;46.760;19.604;2023-07-31T03:05:08;3.63;;;2.83;;
28627;SDS011;15815;46.760;19.604;2023-07-31T03:07:33;3.33;;;2.97;;
28627;SDS011;15815;46.760;19.604;2023-07-31T03:09:59;3.88;;;3.38;;
28627;SDS011;15815;46.760;19.604;2023-07-31T03:12:26;3.28;;;2.42;;
28627;SDS011;15815;46.760;19.604;2023-07-31T03:14:54;5.22;;;3.33;;
28627;SDS011;15815;46.760;19.604;2023-07-31T03:17:19;4.35;;;3.13;;
28627;SDS011;15815;46.760;19.604;2023-07-31T03:19:45;4.18;;;3.13;;
28627;SDS011;15815;46.760;19.604;2023-07-31T03:22:10;3.35;;;2.70;;
28627;SDS011;15815;46.760;19.604;2023-07-31T03:24:36;3.70;;;2.85;;
28627;SDS011;15815;46.760;19.604;2023-07-31T03:27:01;3.63;;;2.90;;
28627;SDS011;15815;46.760;19.604;2023-07-31T03:29:27;3.58;;;3.00;;
28627;SDS011;15815;46.760;19.604;2023-07-31T03:31:53;3.88;;;3.47;;
28627;SDS011;15815;46.760;19.604;2023-07-31T03:34:18;3.58;;;2.85;;
28627;SDS011;15815;46.760;19.604;2023-07-31T03:36:44;3.92;;;3.20;;
28627;SDS011;15815;46.760;19.604;2023-07-31T03:39:09;3.85;;;3.28;;
28627;SDS011;15815;46.760;19.604;2023-07-31T03:41:35;3.55;;;2.90;;
28627;SDS011;15815;46.760;19.604;2023-07-31T03:44:02;3.97;;;2.95;;
28627;SDS011;15815;46.760;19.604;2023-07-31T03:46:27;4.13;;;3.15;;
28627;SDS011;15815;46.760;19.604;2023-07-31T03:48:53;3.63;;;3.00;;
28627;SDS011;15815;46.760;19.604;2023-07-31T03:51:18;3.97;;;3.38;;
28627;SDS011;15815;46.760;19.604;2023-07-31T03:53:44;3.78;;;2.95;;
28627;SDS011;15815;46.760;19.604;2023-07-31T03:56:11;3.38;;;3.08;;
28627;SDS011;15815;46.760;19.604;2023-07-31T03:58:37;4.00;;;2.78;;
28627;SDS011;15815;46.760;19.604;2023-07-31T04:01:02;2.90;;;2.60;;
28627;SDS011;15815;46.760;19.604;2023-07-31T04:03:28;3.47;;;2.80;;
28627;SDS011;15815;46.760;19.604;2023-07-31T04:05:54;3.13;;;2.83;;
28627;SDS011;15815;46.760;19.604;2023-07-31T04:08:21;3.78;;;3.15;;
28627;SDS011;15815;46.760;19.604;2023-07-31T04:10:47;3.08;;;2.67;;
28627;SDS011;15815;46.760;19.604;2023-07-31T04:13:12;6.15;;;2.45;;
28627;SDS011;15815;46.760;19.604;2023-07-31T04:15:38;3.28;;;2.60;;
28627;SDS011;15815;46.760;19.604;2023-07-31T04:18:04;3.28;;;2.72;;
28627;SDS011;15815;46.760;19.604;2023-07-31T04:20:30;2.83;;;2.40;;
28627;SDS011;15815;46.760;19.604;2023-07-31T04:22:56;3.35;;;2.40;;
28627;SDS011;15815;46.760;19.604;2023-07-31T04:25:24;3.00;;;2.60;;
28627;SDS011;15815;46.760;19.604;2023-07-31T04:27:50;2.60;;;2.10;;
28627;SDS011;15815;46.760;19.604;2023-07-31T04:30:16;2.53;;;2.03;;
28627;SDS011;15815;46.760;19.604;2023-07-31T04:32:41;2.92;;;2.25;;
28627;SDS011;15815;46.760;19.604;2023-07-31T04:35:07;4.18;;;2.55;;
28627;SDS011;15815;46.760;19.604;2023-07-31T04:37:32;2.10;;;1.77;;
28627;SDS011;15815;46.760;19.604;2023-07-31T04:39:59;2.20;;;2.00;;
28627;SDS011;15815;46.760;19.604;2023-07-31T04:42:24;2.15;;;1.95;;
28627;SDS011;15815;46.760;19.604;2023-07-31T04:44:51;2.13;;;1.60;;
28627;SDS011;15815;46.760;19.604;2023-07-31T04:47:18;4.50;;;1.80;;
28627;SDS011;15815;46.760;19.604;2023-07-31T04:49:44;3.67;;;2.00;;
28627;SDS011;15815;46.760;19.604;2023-07-31T04:52:11;2.03;;;1.33;;
28627;SDS011;15815;46.760;19.604;2023-07-31T04:54:36;1.92;;;1.60;;
28627;SDS011;15815;46.760;19.604;2023-07-31T04:57:02;1.50;;;1.40;;
28627;SDS011;15815;46.760;19.604;2023-07-31T04:59:30;1.67;;;1.58;;
28627;SDS011;15815;46.760;19.604;2023-07-31T05:01:56;2.63;;;1.58;;
28627;SDS011;15815;46.760;19.604;2023-07-31T05:04:21;1.98;;;1.42;;
28627;SDS011;15815;46.760;19.604;2023-07-31T05:06:47;1.52;;;1.23;;
28627;SDS011;15815;46.760;19.604;2023-07-31T05:09:13;2.97;;;1.20;;
28627;SDS011;15815;46.760;19.604;2023-07-31T05:11:38;1.88;;;1.25;;
28627;SDS011;15815;46.760;19.604;2023-07-31T05:14:04;1.50;;;1.17;;
28627;SDS011;15815;46.760;19.604;2023-07-31T05:16:29;1.63;;;1.05;;
28627;SDS011;15815;46.760;19.604;2023-07-31T05:18:55;2.22;;;1.42;;
28627;SDS011;15815;46.760;19.604;2023-07-31T05:21:20;1.23;;;1.02;;
28627;SDS011;15815;46.760;19.604;2023-07-31T05:23:46;2.58;;;1.33;;
28627;SDS011;15815;46.760;19.604;2023-07-31T05:26:11;1.52;;;1.00;;
28627;SDS011;15815;46.760;19.604;2023-07-31T05:28:37;1.17;;;1.08;;
28627;SDS011;15815;46.760;19.604;2023-07-31T05:31:03;1.02;;;0.98;;
28627;SDS011;15815;46.760;19.604;2023-07-31T05:33:29;1.65;;;1.15;;
28627;SDS011;15815;46.760;19.604;2023-07-31T05:35:55;2.08;;;1.20;;
28627;SDS011;15815;46.760;19.604;2023-07-31T05:38:20;1.48;;;1.10;;
28627;SDS011;15815;46.760;19.604;2023-07-31T05:40:46;1.38;;;1.15;;
28627;SDS011;15815;46.760;19.604;2023-07-31T05:43:14;0.70;;;0.70;;
28627;SDS011;15815;46.760;19.604;2023-07-31T05:45:41;1.90;;;1.17;;
28627;SDS011;15815;46.760;19.604;2023-07-31T05:48:07;1.20;;;1.10;;
28627;SDS011;15815;46.760;19.604;2023-07-31T05:50:32;1.75;;;1.00;;
28627;SDS011;15815;46.760;19.604;2023-07-31T05:52:58;1.10;;;1.00;;
28627;SDS011;15815;46.760;19.604;2023-07-31T05:55:24;1.08;;;0.95;;
28627;SDS011;15815;46.760;19.604;2023-07-31T05:57:50;1.40;;;1.13;;
28627;SDS011;15815;46.760;19.604;2023-07-31T06:00:15;3.00;;;1.10;;
28627;SDS011;15815;46.760;19.604;2023-07-31T06:02:41;0.93;;;0.82;;
28627;SDS011;15815;46.760;19.604;2023-07-31T06:05:06;1.35;;;1.17;;
28627;SDS011;15815;46.760;19.604;2023-07-31T06:07:32;1.25;;;1.00;;
28627;SDS011;15815;46.760;19.604;2023-07-31T06:09:58;1.23;;;0.63;;
28627;SDS011;15815;46.760;19.604;2023-07-31T06:12:23;1.00;;;0.90;;
28627;SDS011;15815;46.760;19.604;2023-07-31T06:14:49;1.17;;;0.70;;
28627;SDS011;15815;46.760;19.604;2023-07-31T06:17:14;0.90;;;0.90;;
28627;SDS011;15815;46.760;19.604;2023-07-31T06:19:40;1.00;;;0.90;;
28627;SDS011;15815;46.760;19.604;2023-07-31T06:22:05;2.03;;;0.65;;
28627;SDS011;15815;46.760;19.604;2023-07-31T06:24:31;2.90;;;0.82;;
28627;SDS011;15815;46.760;19.604;2023-07-31T06:26:56;0.90;;;0.77;;
28627;SDS011;15815;46.760;19.604;2023-07-31T06:29:21;0.70;;;0.70;;
28627;SDS011;15815;46.760;19.604;2023-07-31T06:31:47;0.98;;;0.80;;
28627;SDS011;15815;46.760;19.604;2023-07-31T06:34:12;0.98;;;0.82;;
28627;SDS011;15815;46.760;19.604;2023-07-31T06:36:38;0.60;;;0.60;;
28627;SDS011;15815;46.760;19.604;2023-07-31T06:39:03;1.63;;;0.63;;
28627;SDS011;15815;46.760;19.604;2023-07-31T06:41:29;0.52;;;0.43;;
28627;SDS011;15815;46.760;19.604;2023-07-31T06:43:54;0.35;;;0.35;;
28627;SDS011;15815;46.760;19.604;2023-07-31T06:46:20;0.43;;;0.43;;
28627;SDS011;15815;46.760;19.604;2023-07-31T06:48:45;0.50;;;0.50;;
28627;SDS011;15815;46.760;19.604;2023-07-31T06:51:11;0.85;;;0.52;;
28627;SDS011;15815;46.760;19.604;2023-07-31T06:53:36;0.57;;;0.50;;
28627;SDS011;15815;46.760;19.604;2023-07-31T06:56:02;1.23;;;0.60;;
28627;SDS011;15815;46.760;19.604;2023-07-31T06:58:27;0.63;;;0.60;;
28627;SDS011;15815;46.760;19.604;2023-07-31T07:00:53;1.00;;;0.50;;
28627;SDS011;15815;46.760;19.604;2023-07-31T07:03:18;0.60;;;0.57;;
28627;SDS011;15815;46.760;19.604;2023-07-31T07:05:44;0.68;;;0.68;;
28627;SDS011;15815;46.760;19.604;2023-07-31T07:08:09;0.73;;;0.60;;
28627;SDS011;15815;46.760;19.604;2023-07-31T07:10:35;1.98;;;0.55;;
28627;SDS011;15815;46.760;19.604;2023-07-31T07:13:00;0.60;;;0.60;;
28627;SDS011;15815;46.760;19.604;2023-07-31T07:15:26;1.58;;;0.57;;
28627;SDS011;15815;46.760;19.604;2023-07-31T07:17:51;1.23;;;0.50;;
28627;SDS011;15815;46.760;19.604;2023-07-31T07:20:17;1.02;;;0.57;;
28627;SDS011;15815;46.760;19.604;2023-07-31T07:22:42;0.50;;;0.50;;
28627;SDS011;15815;46.760;19.604;2023-07-31T07:25:08;0.90;;;0.55;;
28627;SDS011;15815;46.760;19.604;2023-07-31T07:27:34;0.63;;;0.50;;
28627;SDS011;15815;46.760;19.604;2023-07-31T07:29:59;0.80;;;0.60;;
28627;SDS011;15815;46.760;19.604;2023-07-31T07:32:25;0.50;;;0.50;;
28627;SDS011;15815;46.760;19.604;2023-07-31T07:34:50;0.77;;;0.60;;
28627;SDS011;15815;46.760;19.604;2023-07-31T07:37:16;2.35;;;0.73;;
28627;SDS011;15815;46.760;19.604;2023-07-31T07:39:41;0.35;;;0.35;;
28627;SDS011;15815;46.760;19.604;2023-07-31T07:42:07;1.25;;;0.70;;
28627;SDS011;15815;46.760;19.604;2023-07-31T07:44:33;0.80;;;0.57;;
28627;SDS011;15815;46.760;19.604;2023-07-31T07:46:58;1.58;;;0.70;;
28627;SDS011;15815;46.760;19.604;2023-07-31T07:49:23;1.10;;;0.63;;
28627;SDS011;15815;46.760;19.604;2023-07-31T07:51:49;1.15;;;0.80;;
28627;SDS011;15815;46.760;19.604;2023-07-31T07:54:15;0.55;;;0.50;;
28627;SDS011;15815;46.760;19.604;2023-07-31T07:56:41;1.08;;;0.98;;
28627;SDS011;15815;46.760;19.604;2023-07-31T07:59:06;2.63;;;0.40;;
28627;SDS011;15815;46.760;19.604;2023-07-31T08:01:32;2.38;;;0.80;;
28627;SDS011;15815;46.760;19.604;2023-07-31T08:03:57;2.15;;;0.60;;
28627;SDS011;15815;46.760;19.604;2023-07-31T08:06:23;1.15;;;0.40;;
28627;SDS011;15815;46.760;19.604;2023-07-31T08:08:48;0.85;;;0.50;;
28627;SDS011;15815;46.760;19.604;2023-07-31T08:11:14;2.85;;;0.70;;
28627;SDS011;15815;46.760;19.604;2023-07-31T08:13:39;1.33;;;0.80;;
28627;SDS011;15815;46.760;19.604;2023-07-31T08:16:07;0.60;;;0.50;;
28627;SDS011;15815;46.760;19.604;2023-07-31T08:18:32;1.08;;;0.65;;
28627;SDS011;15815;46.760;19.604;2023-07-31T08:20:58;0.40;;;0.40;;
28627;SDS011;15815;46.760;19.604;2023-07-31T08:23:27;2.22;;;0.60;;
28627;SDS011;15815;46.760;19.604;2023-07-31T08:25:54;0.50;;;0.40;;
28627;SDS011;15815;46.760;19.604;2023-07-31T08:28:20;1.75;;;0.50;;
28627;SDS011;15815;46.760;19.604;2023-07-31T08:30:45;0.50;;;0.50;;
28627;SDS011;15815;46.760;19.604;2023-07-31T08:33:10;0.95;;;0.60;;
28627;SDS011;15815;46.760;19.604;2023-07-31T08:35:36;1.55;;;0.30;;
28627;SDS011;15815;46.760;19.604;2023-07-31T08:38:02;1.13;;;0.50;;
28627;SDS011;15815;46.760;19.604;2023-07-31T08:40:28;0.80;;;0.52;;
28627;SDS011;15815;46.760;19.604;2023-07-31T08:42:54;0.47;;;0.40;;
28627;SDS011;15815;46.760;19.604;2023-07-31T08:45:20;1.33;;;0.52;;
28627;SDS011;15815;46.760;19.604;2023-07-31T08:47:47;0.75;;;0.40;;
28627;SDS011;15815;46.760;19.604;2023-07-31T08:50:14;1.48;;;0.50;;
28627;SDS011;15815;46.760;19.604;2023-07-31T08:52:42;0.88;;;0.50;;
28627;SDS011;15815;46.760;19.604;2023-07-31T08:55:08;1.00;;;0.50;;
28627;SDS011;15815;46.760;19.604;2023-07-31T08:57:34;0.82;;;0.50;;
28627;SDS011;15815;46.760;19.604;2023-07-31T09:00:02;5.15;;;2.88;;
28627;SDS011;15815;46.760;19.604;2023-07-31T09:02:31;1.02;;;0.47;;
28627;SDS011;15815;46.760;19.604;2023-07-31T09:05:18;0.80;;;0.50;;
28627;SDS011;15815;46.760;19.604;2023-07-31T09:07:45;0.77;;;0.45;;
28627;SDS011;15815;46.760;19.604;2023-07-31T09:10:12;0.85;;;0.40;;
28627;SDS011;15815;46.760;19.604;2023-07-31T09:12:38;0.80;;;0.52;;
28627;SDS011;15815;46.760;19.604;2023-07-31T09:15:04;1.05;;;0.60;;
28627;SDS011;15815;46.760;19.604;2023-07-31T09:17:31;3.67;;;0.70;;
28627;SDS011;15815;46.760;19.604;2023-07-31T09:20:12;1.65;;;0.60;;
28627;SDS011;15815;46.760;19.604;2023-07-31T09:22:40;0.47;;;0.43;;
28627;SDS011;15815;46.760;19.604;2023-07-31T09:25:13;0.50;;;0.38;;
28627;SDS011;15815;46.760;19.604;2023-07-31T09:27:50;0.80;;;0.40;;
28627;SDS011;15815;46.760;19.604;2023-07-31T09:30:17;0.60;;;0.50;;
28627;SDS011;15815;46.760;19.604;2023-07-31T09:32:43;0.50;;;0.30;;
28627;SDS011;15815;46.760;19.604;2023-07-31T09:35:26;1.13;;;0.43;;
28627;SDS011;15815;46.760;19.604;2023-07-31T09:37:58;0.85;;;0.47;;
28627;SDS011;15815;46.760;19.604;2023-07-31T09:40:29;1.52;;;0.60;;
28627;SDS011;15815;46.760;19.604;2023-07-31T09:45:54;0.52;;;0.45;;
28627;SDS011;15815;46.760;19.604;2023-07-31T09:48:20;0.80;;;0.52;;
28627;SDS011;15815;46.760;19.604;2023-07-31T09:50:52;0.88;;;0.70;;
28627;SDS011;15815;46.760;19.604;2023-07-31T09:53:18;0.47;;;0.40;;
28627;SDS011;15815;46.760;19.604;2023-07-31T09:55:44;0.65;;;0.40;;
28627;SDS011;15815;46.760;19.604;2023-07-31T09:58:10;0.95;;;0.40;;
28627;SDS011;15815;46.760;19.604;2023-07-31T10:00:39;0.80;;;0.50;;
28627;SDS011;15815;46.760;19.604;2023-07-31T10:03:06;0.55;;;0.40;;
28627;SDS011;15815;46.760;19.604;2023-07-31T10:05:42;0.43;;;0.43;;
28627;SDS011;15815;46.760;19.604;2023-07-31T10:08:15;0.32;;;0.30;;
28627;SDS011;15815;46.760;19.604;2023-07-31T10:10:42;0.70;;;0.40;;
28627;SDS011;15815;46.760;19.604;2023-07-31T10:13:12;0.50;;;0.30;;
28627;SDS011;15815;46.760;19.604;2023-07-31T10:15:38;0.30;;;0.30;;
28627;SDS011;15815;46.760;19.604;2023-07-31T10:18:07;0.45;;;0.40;;
28627;SDS011;15815;46.760;19.604;2023-07-31T10:20:33;0.40;;;0.40;;
28627;SDS011;15815;46.760;19.604;2023-07-31T10:22:59;1.00;;;0.43;;
28627;SDS011;15815;46.760;19.604;2023-07-31T10:25:28;0.77;;;0.38;;
28627;SDS011;15815;46.760;19.604;2023-07-31T10:27:55;0.43;;;0.40;;
28627;SDS011;15815;46.760;19.604;2023-07-31T10:30:24;0.80;;;0.80;;
28627;SDS011;15815;46.760;19.604;2023-07-31T10:32:52;0.50;;;0.50;;
28627;SDS011;15815;46.760;19.604;2023-07-31T10:35:18;0.82;;;0.50;;
28627;SDS011;15815;46.760;19.604;2023-07-31T10:37:45;1.08;;;0.68;;
28627;SDS011;15815;46.760;19.604;2023-07-31T10:40:26;1.50;;;0.45;;
28627;SDS011;15815;46.760;19.604;2023-07-31T10:48:12;1.48;;;0.45;;
28627;SDS011;15815;46.760;19.604;2023-07-31T10:50:40;0.70;;;0.50;;
28627;SDS011;15815;46.760;19.604;2023-07-31T10:53:22;1.05;;;0.55;;
28627;SDS011;15815;46.760;19.604;2023-07-31T10:55:51;1.38;;;0.70;;
28627;SDS011;15815;46.760;19.604;2023-07-31T10:58:18;0.68;;;0.47;;
28627;SDS011;15815;46.760;19.604;2023-07-31T11:00:45;1.33;;;0.43;;
28627;SDS011;15815;46.760;19.604;2023-07-31T11:03:15;1.60;;;0.45;;
28627;SDS011;15815;46.760;19.604;2023-07-31T11:10:43;0.80;;;0.50;;
28627;SDS011;15815;46.760;19.604;2023-07-31T11:13:09;0.75;;;0.63;;
28627;SDS011;15815;46.760;19.604;2023-07-31T11:15:35;2.05;;;0.75;;
28627;SDS011;15815;46.760;19.604;2023-07-31T11:18:01;1.50;;;0.50;;
28627;SDS011;15815;46.760;19.604;2023-07-31T11:20:28;0.90;;;0.57;;
28627;SDS011;15815;46.760;19.604;2023-07-31T11:22:57;0.85;;;0.50;;
28627;SDS011;15815;46.760;19.604;2023-07-31T11:25:24;2.00;;;0.60;;
28627;SDS011;15815;46.760;19.604;2023-07-31T11:27:49;2.42;;;0.32;;
28627;SDS011;15815;46.760;19.604;2023-07-31T11:30:15;2.17;;;0.80;;
28627;SDS011;15815;46.760;19.604;2023-07-31T11:32:43;1.10;;;0.65;;
28627;SDS011;15815;46.760;19.604;2023-07-31T11:35:12;2.80;;;0.60;;
28627;SDS011;15815;46.760;19.604;2023-07-31T11:37:41;2.90;;;0.63;;
28627;SDS011;15815;46.760;19.604;2023-07-31T11:40:08;3.10;;;0.88;;
28627;SDS011;15815;46.760;19.604;2023-07-31T11:42:35;3.05;;;0.52;;
28627;SDS011;15815;46.760;19.604;2023-07-31T11:45:05;2.85;;;0.80;;
28627;SDS011;15815;46.760;19.604;2023-07-31T11:47:34;1.65;;;0.47;;
28627;SDS011;15815;46.760;19.604;2023-07-31T11:50:01;1.48;;;0.68;;
28627;SDS011;15815;46.760;19.604;2023-07-31T11:52:28;2.30;;;0.60;;
28627;SDS011;15815;46.760;19.604;2023-07-31T11:54:59;0.40;;;0.32;;
28627;SDS011;15815;46.760;19.604;2023-07-31T11:57:25;0.75;;;0.57;;
28627;SDS011;15815;46.760;19.604;2023-07-31T11:59:53;1.00;;;0.40;;
28627;SDS011;15815;46.760;19.604;2023-07-31T12:02:18;1.25;;;0.60;;
28627;SDS011;15815;46.760;19.604;2023-07-31T12:04:45;1.17;;;0.70;;
28627;SDS011;15815;46.760;19.604;2023-07-31T12:07:11;1.65;;;0.60;;
28627;SDS011;15815;46.760;19.604;2023-07-31T12:09:37;0.57;;;0.50;;
28627;SDS011;15815;46.760;19.604;2023-07-31T12:12:02;1.13;;;0.70;;
28627;SDS011;15815;46.760;19.604;2023-07-31T12:14:33;1.13;;;0.60;;
28627;SDS011;15815;46.760;19.604;2023-07-31T12:17:00;0.80;;;0.50;;
28627;SDS011;15815;46.760;19.604;2023-07-31T12:19:29;1.67;;;0.63;;
28627;SDS011;15815;46.760;19.604;2023-07-31T12:21:57;1.90;;;0.60;;
28627;SDS011;15815;46.760;19.604;2023-07-31T12:24:24;2.25;;;0.73;;
28627;SDS011;15815;46.760;19.604;2023-07-31T12:26:52;2.45;;;0.95;;
28627;SDS011;15815;46.760;19.604;2023-07-31T12:29:18;0.43;;;0.40;;
28627;SDS011;15815;46.760;19.604;2023-07-31T12:31:43;0.73;;;0.47;;
28627;SDS011;15815;46.760;19.604;2023-07-31T12:34:16;1.25;;;0.40;;
28627;SDS011;15815;46.760;19.604;2023-07-31T12:36:45;1.25;;;0.70;;
28627;SDS011;15815;46.760;19.604;2023-07-31T12:39:12;0.85;;;0.47;;
28627;SDS011;15815;46.760;19.604;2023-07-31T12:41:37;1.48;;;0.75;;
28627;SDS011;15815;46.760;19.604;2023-07-31T12:44:03;1.35;;;0.82;;
28627;SDS011;15815;46.760;19.604;2023-07-31T12:46:29;1.27;;;0.50;;
28627;SDS011;15815;46.760;19.604;2023-07-31T12:48:54;1.77;;;0.68;;
28627;SDS011;15815;46.760;19.604;2023-07-31T12:51:20;0.93;;;0.60;;
28627;SDS011;15815;46.760;19.604;2023-07-31T12:53:45;1.23;;;0.60;;
28627;SDS011;15815;46.760;19.604;2023-07-31T12:56:12;1.38;;;0.55;;
28627;SDS011;15815;46.760;19.604;2023-07-31T12:58:38;0.60;;;0.50;;
28627;SDS011;15815;46.760;19.604;2023-07-31T13:01:03;1.70;;;0.68;;
28627;SDS011;15815;46.760;19.604;2023-07-31T13:03:29;0.52;;;0.50;;
28627;SDS011;15815;46.760;19.604;2023-07-31T13:05:54;1.33;;;0.60;;
28627;SDS011;15815;46.760;19.604;2023-07-31T13:08:20;1.38;;;0.60;;
28627;SDS011;15815;46.760;19.604;2023-07-31T13:13:20;3.03;;;0.43;;
28627;SDS011;15815;46.760;19.604;2023-07-31T13:15:45;0.57;;;0.43;;
28627;SDS011;15815;46.760;19.604;2023-07-31T13:18:11;1.48;;;0.68;;
28627;SDS011;15815;46.760;19.604;2023-07-31T13:20:36;1.23;;;0.60;;
28627;SDS011;15815;46.760;19.604;2023-07-31T13:23:02;0.98;;;0.70;;
28627;SDS011;15815;46.760;19.604;2023-07-31T13:25:28;1.42;;;0.70;;
28627;SDS011;15815;46.760;19.604;2023-07-31T13:27:53;1.05;;;0.70;;
28627;SDS011;15815;46.760;19.604;2023-07-31T13:30:19;0.80;;;0.50;;
28627;SDS011;15815;46.760;19.604;2023-07-31T13:32:44;1.85;;;0.80;;
28627;SDS011;15815;46.760;19.604;2023-07-31T13:35:09;1.20;;;0.63;;
28627;SDS011;15815;46.760;19.604;2023-07-31T13:37:35;1.02;;;0.80;;
28627;SDS011;15815;46.760;19.604;2023-07-31T13:40:01;1.33;;;0.70;;
28627;SDS011;15815;46.760;19.604;2023-07-31T13:42:26;0.75;;;0.65;;
28627;SDS011;15815;46.760;19.604;2023-07-31T13:44:52;1.65;;;0.70;;
28627;SDS011;15815;46.760;19.604;2023-07-31T13:47:17;1.73;;;0.70;;
28627;SDS011;15815;46.760;19.604;2023-07-31T13:49:43;1.10;;;0.70;;
28627;SDS011;15815;46.760;19.604;2023-07-31T13:52:08;0.80;;;0.63;;
28627;SDS011;15815;46.760;19.604;2023-07-31T13:54:34;2.13;;;0.70;;
28627;SDS011;15815;46.760;19.604;2023-07-31T13:56:59;0.85;;;0.50;;
28627;SDS011;15815;46.760;19.604;2023-07-31T13:59:25;1.00;;;0.60;;
28627;SDS011;15815;46.760;19.604;2023-07-31T14:01:50;1.50;;;0.68;;
28627;SDS011;15815;46.760;19.604;2023-07-31T14:04:16;1.17;;;0.70;;
28627;SDS011;15815;46.760;19.604;2023-07-31T14:06:42;2.00;;;0.52;;
28627;SDS011;15815;46.760;19.604;2023-07-31T14:09:07;1.00;;;0.50;;
28627;SDS011;15815;46.760;19.604;2023-07-31T14:11:33;0.88;;;0.50;;
28627;SDS011;15815;46.760;19.604;2023-07-31T14:13:59;1.00;;;0.60;;
28627;SDS011;15815;46.760;19.604;2023-07-31T14:16:24;1.25;;;0.55;;
28627;SDS011;15815;46.760;19.604;2023-07-31T14:18:50;1.38;;;0.73;;
28627;SDS011;15815;46.760;19.604;2023-07-31T14:21:16;1.02;;;0.40;;
28627;SDS011;15815;46.760;19.604;2023-07-31T14:23:41;1.45;;;0.80;;
28627;SDS011;15815;46.760;19.604;2023-07-31T14:26:07;1.48;;;0.70;;
28627;SDS011;15815;46.760;19.604;2023-07-31T14:28:32;1.50;;;0.68;;
28627;SDS011;15815;46.760;19.604;2023-07-31T14:30:58;1.70;;;0.88;;
28627;SDS011;15815;46.760;19.604;2023-07-31T14:33:24;0.70;;;0.55;;
28627;SDS011;15815;46.760;19.604;2023-07-31T14:35:49;1.60;;;0.75;;
28627;SDS011;15815;46.760;19.604;2023-07-31T14:38:15;1.85;;;0.80;;
28627;SDS011;15815;46.760;19.604;2023-07-31T14:40:41;1.08;;;0.68;;
28627;SDS011;15815;46.760;19.604;2023-07-31T14:43:06;0.73;;;0.65;;
28627;SDS011;15815;46.760;19.604;2023-07-31T14:45:32;1.42;;;0.65;;
28627;SDS011;15815;46.760;19.604;2023-07-31T14:47:57;1.70;;;0.85;;
28627;SDS011;15815;46.760;19.604;2023-07-31T14:50:23;1.20;;;0.60;;